Time;durP1;ratioP1;P1;durP2;ratioP2;P2;SDS_P1;SDS_P2;PMS_P1;PMS_P2;Temp;Humidity;BMP_temperature;BMP_pressure;BME280_temperature;BME280_humidity;BME280_pressure;Samples;Min_cycle;Max_cycle;Signal;HPM_P1;HPM_P2
2021/08/29 00:01:53;;;;;;;5.10;2.97;;;;;;;15.81;86.06;101596.22;4976446;28;20212;-67
2021/08/29 00:04:21;;;;;;;6.93;3.20;;;;;;;15.64;86.88;101603.91;4983248;28;20327;-67
2021/08/29 00:06:50;;;;;;;439.90;322.37;;;;;;;15.66;86.20;101589.28;4989601;28;20212;-67
2021/08/29 00:09:18;;;;;;;18.87;10.80;;;;;;;15.72;86.37;101591.53;4974164;28;21007;-67
2021/08/29 00:11:46;;;;;;;16.63;7.23;;;;;;;15.67;86.67;101593.72;4973530;28;20220;-68
2021/08/29 00:14:15;;;;;;;8.87;3.43;;;;;;;15.57;87.42;101592.63;4978897;28;20667;-67
2021/08/29 00:16:43;;;;;;;7.20;3.30;;;;;;;15.61;87.14;101599.59;4991652;28;20219;-68
2021/08/29 00:19:11;;;;;;;5.10;3.07;;;;;;;15.53;87.54;101594.69;4985152;28;20244;-68
2021/08/29 00:21:39;;;;;;;5.10;3.30;;;;;;;15.56;87.85;101587.31;5004412;28;20204;-67
2021/08/29 00:24:07;;;;;;;7.60;3.30;;;;;;;15.60;87.60;101592.44;4992894;28;20211;-67
2021/08/29 00:26:36;;;;;;;17.97;13.23;;;;;;;15.62;87.35;101601.31;4991919;28;20358;-68
2021/08/29 00:29:04;;;;;;;10.00;4.00;;;;;;;15.56;87.72;101596.31;5004482;28;20205;-67
2021/08/29 00:31:33;;;;;;;6.30;3.83;;;;;;;15.60;87.08;101592.44;4974278;28;20207;-67
2021/08/29 00:34:01;;;;;;;7.17;3.37;;;;;;;15.57;87.49;101587.22;4973079;28;20232;-68
2021/08/29 00:36:30;;;;;;;14.00;6.50;;;;;;;15.52;87.49;101584.00;4991745;28;20587;-67
2021/08/29 00:38:58;;;;;;;7.50;3.97;;;;;;;15.54;87.52;101582.03;4989884;28;20231;-67
2021/08/29 00:41:27;;;;;;;8.20;3.90;;;;;;;15.57;87.59;101586.34;4990976;28;20196;-67
2021/08/29 00:43:55;;;;;;;5.50;3.30;;;;;;;15.64;87.45;101587.66;4990824;28;20208;-68
2021/08/29 00:46:24;;;;;;;6.50;3.20;;;;;;;15.53;87.50;101588.41;4980225;28;20259;-67
2021/08/29 00:48:54;;;;;;;8.57;2.97;;;;;;;15.64;86.37;101591.25;4988148;28;20291;-67
2021/08/29 00:51:22;;;;;;;6.53;2.93;;;;;;;15.45;86.74;101588.13;4987806;28;20196;-67
2021/08/29 00:53:51;;;;;;;4.53;2.77;;;;;;;15.37;87.25;101582.44;4984096;28;20311;-68
2021/08/29 00:56:21;;;;;;;9.80;3.33;;;;;;;15.15;87.54;101562.38;4986277;28;20211;-68
2021/08/29 00:58:50;;;;;;;7.80;3.40;;;;;;;15.31;87.50;101591.88;4990686;28;20208;-67
2021/08/29 01:01:21;;;;;;;4.93;3.20;;;;;;;15.30;87.25;101581.16;4999229;28;20292;-67
2021/08/29 01:03:53;;;;;;;6.07;3.20;;;;;;;15.31;87.85;101585.63;4982667;28;20223;-68
2021/08/29 01:06:29;;;;;;;6.90;3.07;;;;;;;15.33;87.73;101586.34;5003311;28;20201;-67
2021/08/29 01:09:20;;;;;;;6.83;3.20;;;;;;;15.32;87.22;101588.19;4982738;28;20669;-67
2021/08/29 01:11:53;;;;;;;5.07;2.90;;;;;;;15.34;87.36;101590.78;4986436;28;20610;-68
2021/08/29 01:14:49;;;;;;;5.10;3.43;;;;;;;15.27;87.38;101589.50;4986020;28;20235;-67
2021/08/29 01:17:20;;;;;;;7.97;3.20;;;;;;;15.16;87.71;101582.19;4984837;28;20214;-67
2021/08/29 01:20:01;;;;;;;8.07;3.10;;;;;;;14.94;88.53;101558.53;5005839;28;20203;-67
2021/08/29 01:22:34;;;;;;;5.87;2.87;;;;;;;15.14;88.51;101585.00;4985502;28;20666;-68
2021/08/29 01:25:04;;;;;;;7.83;3.77;;;;;;;15.10;88.04;101582.63;4985404;28;20309;-67
2021/08/29 01:27:43;;;;;;;6.57;3.30;;;;;;;15.17;88.17;101576.66;4988478;28;20208;-68
2021/08/29 01:30:13;;;;;;;6.10;3.17;;;;;;;15.13;87.82;101577.84;4986217;28;21025;-67
2021/08/29 01:32:43;;;;;;;6.10;3.23;;;;;;;15.07;88.25;101581.03;4988480;28;20210;-67
2021/08/29 01:35:13;;;;;;;10.73;3.70;;;;;;;14.85;88.27;101534.88;4986050;28;20207;-67
2021/08/29 01:37:55;;;;;;;4.70;3.00;;;;;;;15.11;87.95;101587.94;4987459;28;20318;-67
2021/08/29 01:40:23;;;;;;;9.40;3.20;;;;;;;15.06;88.30;101581.13;4983867;28;20258;-67
2021/08/29 01:42:52;;;;;;;6.80;3.07;;;;;;;15.05;87.96;101571.28;4985767;28;20258;-67
2021/08/29 01:45:21;;;;;;;8.37;3.20;;;;;;;15.05;88.13;101574.00;4988000;28;20250;-68
2021/08/29 01:47:53;;;;;;;8.63;3.60;;;;;;;14.98;88.17;101570.84;4998456;28;20664;-68
2021/08/29 01:50:23;;;;;;;6.37;3.20;;;;;;;14.92;88.55;101568.59;4988875;28;20577;-67
2021/08/29 01:52:56;;;;;;;6.27;3.20;;;;;;;14.92;88.58;101571.31;5001939;28;20208;-67
2021/08/29 01:55:44;;;;;;;6.17;3.20;;;;;;;14.96;88.25;101564.69;4963701;28;20211;-67
2021/08/29 01:58:26;;;;;;;9.53;3.03;;;;;;;15.01;88.04;101567.94;4990139;28;20203;-68
2021/08/29 02:00:59;;;;;;;12.00;3.40;;;;;;;14.90;88.28;101570.56;4989240;28;20219;-67
2021/08/29 02:03:31;;;;;;;4.77;3.20;;;;;;;14.86;88.51;101566.34;4989035;28;20232;-67
2021/08/29 02:06:26;;;;;;;6.40;3.30;;;;;;;14.61;88.40;101523.97;4989221;28;20296;-67
2021/08/29 02:08:59;;;;;;;5.37;3.00;;;;;;;14.76;88.56;101573.41;4988021;28;20880;-68
2021/08/29 02:11:34;;;;;;;9.47;3.10;;;;;;;14.80;88.08;101569.50;4972282;28;20230;-67
2021/08/29 02:14:09;;;;;;;6.90;3.23;;;;;;;14.77;88.15;101570.59;4998742;28;20317;-67
2021/08/29 02:16:42;;;;;;;4.13;2.80;;;;;;;14.53;88.60;101529.09;5000622;28;20246;-68
2021/08/29 02:19:15;;;;;;;9.23;3.50;;;;;;;14.68;88.65;101573.06;4982421;28;20218;-67
2021/08/29 02:21:47;;;;;;;11.40;2.90;;;;;;;14.60;89.12;101577.19;4991418;28;20628;-67
2021/08/29 02:24:16;;;;;;;5.80;3.30;;;;;;;14.67;88.75;101579.44;4983012;28;20211;-68
2021/08/29 02:26:44;;;;;;;7.93;3.03;;;;;;;14.65;89.11;101582.25;4989008;28;20320;-67
2021/08/29 02:29:17;;;;;;;7.03;2.70;;;;;;;14.59;89.26;101580.00;5005283;28;20219;-67
2021/08/29 02:31:49;;;;;;;5.93;3.00;;;;;;;14.62;88.44;101576.22;4989232;28;20219;-68
2021/08/29 02:34:18;;;;;;;7.27;3.03;;;;;;;14.62;89.18;101576.22;4999231;28;20227;-68
2021/08/29 02:36:51;;;;;;;8.57;2.70;;;;;;;14.64;88.36;101585.06;4991747;28;20212;-67
2021/08/29 02:39:31;;;;;;;6.67;3.13;;;;;;;14.54;88.74;101569.53;4997783;28;20208;-67
2021/08/29 02:42:00;;;;;;;4.93;3.17;;;;;;;14.58;88.79;101568.31;4999934;28;20651;-67
2021/08/29 02:44:30;;;;;;;8.37;3.17;;;;;;;14.60;88.81;101563.66;4976414;28;20199;-67
2021/08/29 02:47:01;;;;;;;6.73;2.83;;;;;;;14.57;88.75;101580.13;4990694;28;20206;-67
2021/08/29 02:49:30;;;;;;;4.27;2.70;;;;;;;14.51;88.70;101569.75;5002202;28;20216;-67
2021/08/29 02:51:58;;;;;;;5.80;2.80;;;;;;;14.53;89.16;101578.59;4996130;28;20203;-67
2021/08/29 02:54:28;;;;;;;3.73;2.53;;;;;;;14.48;88.66;101547.47;4986394;28;21181;-68
2021/08/29 02:56:59;;;;;;;5.67;2.67;;;;;;;14.61;88.27;101578.06;4992090;28;20288;-67
2021/08/29 02:59:28;;;;;;;5.30;3.13;;;;;;;14.56;88.34;101564.00;5019571;28;20608;-68
2021/08/29 03:01:56;;;;;;;6.37;2.77;;;;;;;14.62;88.59;101577.06;4990034;28;20216;-67
2021/08/29 03:04:33;;;;;;;10.13;3.00;;;;;;;14.53;88.98;101588.56;4976796;28;20236;-67
2021/08/29 03:07:02;;;;;;;48.70;32.67;;;;;;;14.55;88.92;101576.66;4992171;28;20851;-67
2021/08/29 03:09:33;;;;;;;6.60;4.73;;;;;;;14.61;88.42;101572.66;4996568;28;20204;-68
2021/08/29 03:12:04;;;;;;;6.03;4.00;;;;;;;14.72;88.47;101582.72;4988898;28;20219;-68
2021/08/29 03:14:58;;;;;;;7.00;4.77;;;;;;;14.77;88.17;101581.41;4974016;28;20243;-67
2021/08/29 03:17:27;;;;;;;6.63;4.10;;;;;;;14.76;87.91;101578.81;4988853;28;20289;-68
2021/08/29 03:20:07;;;;;;;5.33;3.10;;;;;;;14.76;87.95;101578.81;4982089;28;20207;-68
2021/08/29 03:22:47;;;;;;;6.87;3.30;;;;;;;14.75;87.94;101577.09;4984542;28;20226;-68
2021/08/29 03:25:16;;;;;;;7.83;3.30;;;;;;;14.68;87.79;101589.28;4983968;28;20211;-68
2021/08/29 03:27:45;;;;;;;8.07;3.60;;;;;;;14.69;87.38;101572.09;4982351;28;20228;-67
2021/08/29 03:30:15;;;;;;;8.00;2.80;;;;;;;14.66;87.54;101575.00;4985621;28;20205;-68
2021/08/29 03:32:44;;;;;;;7.60;3.17;;;;;;;14.51;87.50;101553.53;5004121;28;20207;-67
2021/08/29 03:35:28;;;;;;;11.00;3.10;;;;;;;14.56;88.15;101567.56;5006105;28;20227;-67
2021/08/29 03:37:58;;;;;;;8.23;3.40;;;;;;;14.49;87.88;101565.41;5012324;28;20282;-68
2021/08/29 03:40:28;;;;;;;4.47;2.70;;;;;;;14.40;87.57;101539.88;4991449;28;20216;-67
2021/08/29 03:42:57;;;;;;;4.40;2.90;;;;;;;14.62;87.88;101571.66;4975816;28;20610;-67
2021/08/29 03:45:26;;;;;;;5.93;2.77;;;;;;;14.64;87.40;101568.84;4997001;28;20206;-67
2021/08/29 03:47:57;;;;;;;7.53;3.27;;;;;;;14.62;87.04;101566.25;4997384;28;20231;-67
2021/08/29 03:50:27;;;;;;;6.90;2.73;;;;;;;14.64;86.96;101575.13;4981051;28;20338;-67
2021/08/29 03:52:57;;;;;;;7.03;3.40;;;;;;;14.46;87.39;101544.88;4982000;28;20274;-67
2021/08/29 03:55:34;;;;;;;4.50;2.90;;;;;;;14.50;87.12;101572.56;4988839;28;20272;-67
2021/08/29 03:58:02;;;;;;;8.53;3.57;;;;;;;14.42;87.84;101573.06;4996660;28;20227;-68
2021/08/29 04:00:39;;;;;;;5.90;2.83;;;;;;;14.43;87.59;101569.44;4984513;28;20453;-67
2021/08/29 04:03:08;;;;;;;4.93;3.00;;;;;;;14.33;87.94;101576.41;4979030;28;20251;-67
2021/08/29 04:06:08;;;;;;;5.80;2.80;;;;;;;14.40;88.37;101582.25;4985025;28;20287;-67
2021/08/29 04:08:39;;;;;;;5.40;2.90;;;;;;;14.43;88.23;101576.66;4987265;28;20215;-68
2021/08/29 04:11:09;;;;;;;6.43;2.80;;;;;;;14.43;88.14;101576.66;4991456;28;20226;-67
2021/08/29 04:13:39;;;;;;;5.97;3.07;;;;;;;14.44;88.13;101586.50;4981086;28;20267;-67
2021/08/29 04:16:15;;;;;;;8.97;3.43;;;;;;;14.48;87.64;101590.72;4981659;28;20245;-67
2021/08/29 04:18:49;;;;;;;6.27;3.30;;;;;;;14.42;88.13;101592.00;5000782;28;20236;-67
2021/08/29 04:21:24;;;;;;;4.30;2.73;;;;;;;14.40;88.19;101593.94;5004123;28;20671;-68
2021/08/29 04:23:53;;;;;;;6.37;2.90;;;;;;;14.50;87.96;101589.63;4998719;28;20291;-67
2021/08/29 04:26:25;;;;;;;6.37;3.10;;;;;;;14.40;87.91;101588.53;4987872;28;20196;-68
2021/08/29 04:28:54;;;;;;;5.57;3.43;;;;;;;14.43;87.74;101591.06;4989293;28;20297;-68
2021/08/29 04:31:29;;;;;;;7.97;3.50;;;;;;;14.41;87.77;101594.81;4990645;28;20302;-67
2021/08/29 04:34:05;;;;;;;6.53;2.70;;;;;;;14.28;88.14;101590.22;4990135;28;20210;-68
2021/08/29 04:36:40;;;;;;;5.93;2.87;;;;;;;14.37;87.66;101590.56;4986455;28;20232;-67
2021/08/29 04:39:31;;;;;;;7.90;3.30;;;;;;;14.46;88.00;101596.25;4972172;28;20303;-67
2021/08/29 04:41:59;;;;;;;5.73;3.30;;;;;;;14.41;88.13;101590.25;4999288;28;21490;-68
2021/08/29 04:44:28;;;;;;;6.43;2.60;;;;;;;14.29;87.49;101574.88;5013133;28;20230;-68
2021/08/29 04:46:58;;;;;;;4.97;2.90;;;;;;;14.49;87.82;101589.75;4994686;28;20211;-67
2021/08/29 04:49:26;;;;;;;4.43;2.63;;;;;;;14.49;87.72;101596.00;5006227;28;20208;-68
2021/08/29 04:51:57;;;;;;;9.73;3.00;;;;;;;14.53;87.67;101597.53;5001275;28;20555;-68
2021/08/29 04:54:25;;;;;;;7.90;3.43;;;;;;;14.57;87.89;101599.03;4999090;28;20196;-68
2021/08/29 04:56:53;;;;;;;6.97;2.97;;;;;;;14.68;87.65;101592.00;4989767;28;20231;-67
2021/08/29 04:59:21;;;;;;;7.73;3.10;;;;;;;14.72;87.21;101594.41;5003637;28;20693;-67
2021/08/29 05:01:50;;;;;;;3.83;2.87;;;;;;;14.81;87.00;101587.44;5005124;28;20282;-67
2021/08/29 05:04:18;;;;;;;5.67;3.00;;;;;;;14.82;86.98;101595.44;4988784;28;20239;-67
2021/08/29 05:06:48;;;;;;;13.37;3.30;;;;;;;14.89;86.83;101602.16;4979231;28;20671;-67
2021/08/29 05:09:19;;;;;;;5.13;2.63;;;;;;;14.94;87.01;101604.50;5003650;28;20271;-67
2021/08/29 05:11:48;;;;;;;6.97;2.70;;;;;;;15.02;86.17;101610.25;4981195;28;20311;-67
2021/08/29 05:14:16;;;;;;;8.20;3.00;;;;;;;15.04;86.45;101605.59;4981341;28;20216;-67
2021/08/29 05:16:44;;;;;;;7.67;2.87;;;;;;;14.98;86.45;101600.59;4987872;28;20228;-67
2021/08/29 05:19:12;;;;;;;8.00;3.20;;;;;;;15.05;86.12;101606.47;4989216;28;20212;-67
2021/08/29 05:21:40;;;;;;;6.33;3.20;;;;;;;15.11;86.28;101612.28;4978325;28;20616;-67
2021/08/29 05:24:28;;;;;;;6.63;3.17;;;;;;;15.23;85.72;101603.25;4983623;28;20199;-67
2021/08/29 05:27:01;;;;;;;7.63;3.20;;;;;;;15.35;85.28;101609.63;4977788;28;20208;-67
2021/08/29 05:29:29;;;;;;;3.87;2.73;;;;;;;15.32;84.85;101601.75;4986519;28;20607;-67
2021/08/29 05:31:57;;;;;;;4.83;2.93;;;;;;;15.41;84.84;101608.31;4981273;28;20630;-67
2021/08/29 05:34:34;;;;;;;5.93;3.00;;;;;;;15.45;85.13;101601.69;5003196;28;20224;-67
2021/08/29 05:37:03;;;;;;;7.20;2.83;;;;;;;15.51;84.88;101609.34;4980717;28;21674;-66
2021/08/29 05:39:52;;;;;;;5.07;2.93;;;;;;;15.47;83.88;101591.59;4986865;28;20367;-67
2021/08/29 05:42:21;;;;;;;6.63;3.00;;;;;;;15.65;84.29;101613.78;4985222;28;20600;-67
2021/08/29 05:45:02;;;;;;;4.87;2.80;;;;;;;15.69;84.41;101608.00;5007316;28;20218;-67
2021/08/29 05:47:30;;;;;;;6.13;2.77;;;;;;;15.64;83.82;101582.25;4987445;28;20259;-67
2021/08/29 05:49:58;;;;;;;11.53;3.23;;;;;;;16.00;83.39;101611.94;4997154;28;20718;-67
2021/08/29 05:52:27;;;;;;;4.60;2.43;;;;;;;16.09;83.19;101607.66;5001816;28;20195;-67
2021/08/29 05:54:57;;;;;;;9.07;2.80;;;;;;;16.16;82.63;101611.63;4986436;28;20208;-66
2021/08/29 05:57:25;;;;;;;4.87;2.73;;;;;;;16.16;81.92;101592.66;4988398;28;20719;-68
2021/08/29 05:59:53;;;;;;;4.07;2.50;;;;;;;16.50;80.91;101612.56;4983826;28;20204;-67
2021/08/29 06:02:21;;;;;;;8.00;2.90;;;;;;;16.64;81.28;101603.34;4976054;28;20200;-68
2021/08/29 06:04:50;;;;;;;3.43;2.47;;;;;;;16.72;80.41;101606.34;4982226;28;20363;-67
2021/08/29 06:07:25;;;;;;;5.03;2.97;;;;;;;16.75;79.90;101604.25;5002471;28;20327;-68
2021/08/29 06:10:03;;;;;;;7.30;2.83;;;;;;;16.44;79.42;101573.25;4981646;28;20255;-68
2021/08/29 06:12:33;;;;;;;6.87;2.87;;;;;;;16.66;79.70;101604.13;4994212;28;20196;-67
2021/08/29 06:15:02;;;;;;;4.20;2.40;;;;;;;16.76;80.05;101605.97;4999843;28;20203;-67
2021/08/29 06:17:30;;;;;;;9.33;2.70;;;;;;;16.74;79.67;101585.38;4981481;28;20776;-67
2021/08/29 06:19:58;;;;;;;4.73;2.93;;;;;;;17.11;78.73;101604.09;4982286;28;20192;-67
2021/08/29 06:22:27;;;;;;;3.43;2.53;;;;;;;17.34;78.10;101597.66;4982809;28;20216;-67
2021/08/29 06:25:20;;;;;;;7.87;2.93;;;;;;;17.31;77.36;101595.22;4979602;28;20304;-67
2021/08/29 06:28:06;;;;;;;4.37;2.63;;;;;;;17.45;77.95;101597.66;4986533;28;20207;-67
2021/08/29 06:30:57;;;;;;;7.60;2.73;;;;;;;17.58;77.62;101601.06;4955955;28;20230;-67
2021/08/29 06:33:57;;;;;;;5.13;2.60;;;;;;;17.55;76.08;101595.88;4964236;28;20248;-69
2021/08/29 06:36:27;;;;;;;5.07;2.50;;;;;;;17.74;76.66;101602.50;4981828;28;20645;-67
2021/08/29 06:38:58;;;;;;;5.17;2.57;;;;;;;17.84;76.95;101611.63;4988775;28;20250;-67
2021/08/29 06:41:27;;;;;;;6.50;2.80;;;;;;;17.95;75.56;101612.44;4985757;28;20196;-68
2021/08/29 06:43:57;;;;;;;6.67;2.90;;;;;;;17.98;75.25;101605.88;4982790;28;20431;-67
2021/08/29 06:46:44;;;;;;;6.47;3.03;;;;;;;17.82;75.38;101600.03;4986065;28;20204;-68
2021/08/29 06:49:27;;;;;;;3.47;2.67;;;;;;;17.92;75.67;101604.56;4980843;28;20208;-67
2021/08/29 06:52:34;;;;;;;6.60;2.80;;;;;;;17.81;75.37;101607.31;4929398;29;20210;-68
2021/08/29 06:55:22;;;;;;;3.77;2.50;;;;;;;17.94;74.01;101605.28;4926890;29;20306;-67
2021/08/29 06:58:12;;;;;;;3.90;2.50;;;;;;;17.64;75.02;101603.25;4968337;28;20746;-67
2021/08/29 07:00:41;;;;;;;6.67;2.50;;;;;;;17.75;75.47;101605.09;4988032;28;20242;-67
2021/08/29 07:03:11;;;;;;;4.87;2.93;;;;;;;17.74;74.48;101591.66;4981663;28;20240;-67
2021/08/29 07:05:40;;;;;;;5.27;2.73;;;;;;;17.71;75.42;101570.16;4985231;28;20203;-69
2021/08/29 07:08:31;;;;;;;3.97;2.80;;;;;;;17.84;75.25;101596.19;4981728;28;20216;-69
2021/08/29 07:11:01;;;;;;;4.33;2.80;;;;;;;18.05;75.23;101585.31;4978374;28;20219;-68
2021/08/29 07:13:40;;;;;;;7.07;2.97;;;;;;;18.10;74.56;101593.97;4983707;28;20214;-68
2021/08/29 07:16:08;;;;;;;5.17;2.50;;;;;;;18.13;73.89;101577.41;4985972;28;20290;-68
2021/08/29 07:18:37;;;;;;;5.17;2.43;;;;;;;18.18;73.88;101586.00;4987274;28;20202;-68
2021/08/29 07:21:15;;;;;;;6.23;2.60;;;;;;;18.38;72.34;101578.00;4986278;28;20223;-69
2021/08/29 07:23:58;;;;;;;7.43;2.67;;;;;;;18.58;72.34;101590.69;4987236;28;20208;-69
2021/08/29 07:26:45;;;;;;;3.07;2.27;;;;;;;18.63;72.14;101590.31;4986497;28;20722;-69
2021/08/29 07:29:46;;;;;;;6.40;2.60;;;;;;;18.51;71.57;101609.41;4974110;28;20212;-69
2021/08/29 07:32:33;;;;;;;5.57;3.00;;;;;;;18.82;71.38;101613.06;4986968;28;20215;-69
2021/08/29 07:35:01;;;;;;;7.03;2.87;;;;;;;19.07;71.18;101603.56;5004871;28;20208;-69
2021/08/29 07:37:29;;;;;;;10.20;2.60;;;;;;;19.34;69.13;101600.22;4988911;28;20232;-69
2021/08/29 07:39:57;;;;;;;7.03;2.73;;;;;;;19.25;69.98;101576.50;4990256;28;20204;-69
2021/08/29 07:42:26;;;;;;;3.77;2.43;;;;;;;19.07;69.52;101608.16;4986115;28;20571;-69
2021/08/29 07:44:55;;;;;;;7.17;2.70;;;;;;;19.12;70.16;101609.47;4984781;28;20200;-68
2021/08/29 07:47:27;;;;;;;5.60;2.67;;;;;;;19.22;70.61;101606.75;4984942;28;20717;-69
2021/08/29 07:49:55;;;;;;;7.40;2.47;;;;;;;19.35;69.49;101615.56;5003902;28;20216;-68
2021/08/29 07:52:25;;;;;;;5.50;2.53;;;;;;;19.57;69.04;101605.44;4984434;28;20213;-69
2021/08/29 07:55:08;;;;;;;4.37;2.57;;;;;;;19.87;68.48;101605.31;4984950;28;20215;-69
2021/08/29 07:57:48;;;;;;;3.73;2.47;;;;;;;20.19;68.18;101612.34;4986739;28;20258;-69
2021/08/29 08:00:25;;;;;;;8.60;2.27;;;;;;;20.00;67.36;101548.66;4985873;28;20203;-69
2021/08/29 08:03:13;;;;;;;3.37;2.50;;;;;;;20.26;67.36;101608.06;4985377;28;20220;-69
2021/08/29 08:06:03;;;;;;;3.50;2.20;;;;;;;20.34;66.24;101619.09;4986278;28;20290;-69
2021/08/29 08:08:49;;;;;;;4.67;2.50;;;;;;;20.23;66.35;101606.47;4983713;28;20286;-68
2021/08/29 08:11:41;;;;;;;5.80;2.10;;;;;;;20.40;66.64;101608.47;4961727;28;20243;-68
2021/08/29 08:14:11;;;;;;;4.50;2.47;;;;;;;19.95;66.05;101615.53;4984850;28;20547;-69
2021/08/29 08:16:40;;;;;;;6.50;2.40;;;;;;;19.93;66.59;101617.53;4988506;28;20207;-69
2021/08/29 08:19:19;;;;;;;4.30;2.17;;;;;;;20.11;65.92;101611.22;4986227;28;20210;-69
2021/08/29 08:21:48;;;;;;;3.13;2.20;;;;;;;20.24;66.28;101602.75;4990394;28;20232;-69
2021/08/29 08:24:26;;;;;;;4.50;2.43;;;;;;;20.10;66.65;101608.63;4986000;28;20195;-69
2021/08/29 08:27:13;;;;;;;6.07;2.67;;;;;;;20.28;66.75;101615.09;4980174;28;20275;-68
2021/08/29 08:29:59;;;;;;;3.33;2.07;;;;;;;20.31;67.65;101617.53;4986323;28;20266;-68
2021/08/29 08:32:47;;;;;;;3.93;2.23;;;;;;;20.61;67.26;101618.34;4991004;28;20335;-69
2021/08/29 08:35:42;;;;;;;6.23;2.10;;;;;;;20.15;65.78;101617.22;4990696;28;20212;-68
2021/08/29 08:38:23;;;;;;;5.10;2.70;;;;;;;19.87;66.72;101593.56;5004096;28;20246;-68
2021/08/29 08:41:19;;;;;;;5.47;2.80;;;;;;;20.31;66.92;101619.38;4972180;28;20209;-68
2021/08/29 08:44:17;;;;;;;3.27;2.30;;;;;;;20.54;66.17;101625.41;4936641;28;20214;-68
2021/08/29 08:47:07;;;;;;;3.73;2.60;;;;;;;20.43;66.22;101626.44;4989127;28;20231;-69
2021/08/29 08:49:58;;;;;;;3.73;2.40;;;;;;;20.08;67.18;101619.69;4984161;28;20778;-68
2021/08/29 08:52:46;;;;;;;3.37;2.30;;;;;;;20.44;66.79;101623.56;4989918;28;20226;-69
2021/08/29 08:55:32;;;;;;;3.13;2.37;;;;;;;20.49;67.05;101634.03;4981898;28;20219;-69
2021/08/29 08:58:24;;;;;;;5.80;2.53;;;;;;;20.28;66.71;101631.44;4961818;28;20788;-68
2021/08/29 09:01:27;;;;;;;8.50;2.50;;;;;;;20.73;66.86;101639.00;4985869;28;20200;-69
2021/08/29 09:04:06;;;;;;;4.07;2.40;;;;;;;;;;4985204;28;20231;-69
2021/08/29 09:06:41;;;;;;;4.33;2.43;;;;;;;20.81;66.68;101635.53;4987246;28;20291;-69
2021/08/29 09:09:10;;;;;;;3.23;2.50;;;;;;;20.71;65.63;101636.44;4981978;28;20200;-69
2021/08/29 09:11:42;;;;;;;4.67;2.30;;;;;;;20.50;65.78;101638.47;4980582;28;20296;-68
2021/08/29 09:14:11;;;;;;;5.90;2.63;;;;;;;20.41;66.56;101644.81;4980073;28;20664;-68
2021/08/29 09:16:39;;;;;;;4.87;2.40;;;;;;;20.09;67.20;101621.41;4995916;28;20628;-68
2021/08/29 09:19:10;;;;;;;3.13;2.30;;;;;;;20.04;66.96;101642.78;4987564;28;20223;-69
2021/08/29 09:21:49;;;;;;;6.03;3.30;;;;;;;20.00;67.61;101649.53;4980727;28;20207;-69
2021/08/29 09:24:29;;;;;;;5.17;2.37;;;;;;;19.74;67.26;101643.78;4987713;28;20208;-68
2021/08/29 09:27:22;;;;;;;3.57;2.37;;;;;;;19.70;68.86;101644.22;5000105;28;20208;-69
2021/08/29 09:30:10;;;;;;;7.97;2.57;;;;;;;19.83;69.09;101644.78;4980187;28;20231;-69
2021/08/29 09:32:46;;;;;;;3.23;2.50;;;;;;;20.23;67.93;101643.81;4990063;28;20228;-69
2021/08/29 09:35:15;;;;;;;4.60;2.43;;;;;;;20.24;67.34;101642.81;4988308;28;20199;-69
2021/08/29 09:38:04;;;;;;;4.57;2.73;;;;;;;19.82;67.81;101643.91;4983614;28;20227;-69
2021/08/29 09:41:22;;;;;;;4.10;2.57;;;;;;;19.91;68.01;101647.69;4973451;28;20291;-69
2021/08/29 09:44:07;;;;;;;3.00;2.43;;;;;;;20.01;68.28;101651.28;4976581;28;20209;-69
2021/08/29 09:46:35;;;;;;;5.07;2.90;;;;;;;20.20;68.67;101641.34;4985817;28;20251;-69
2021/08/29 09:49:26;;;;;;;4.93;2.70;;;;;;;20.34;67.55;101646.38;4990890;28;20673;-69
2021/08/29 09:52:09;;;;;;;4.30;2.43;;;;;;;20.31;67.90;101646.66;4986322;28;20625;-69
2021/08/29 09:54:48;;;;;;;4.27;2.60;;;;;;;20.23;67.59;101650.13;5002556;28;20641;-70
2021/08/29 09:57:38;;;;;;;5.73;2.70;;;;;;;20.10;67.28;101655.00;4999046;28;20910;-69
2021/08/29 10:00:26;;;;;;;3.70;2.30;;;;;;;20.23;68.47;101655.59;4981990;28;20259;-69
2021/08/29 10:03:07;;;;;;;4.33;2.37;;;;;;;20.08;67.03;101660.59;4987033;28;20322;-69
2021/08/29 10:06:14;;;;;;;4.43;2.50;;;;;;;20.33;68.39;101655.56;4986695;28;20212;-69
2021/08/29 10:08:42;;;;;;;5.60;2.90;;;;;;;20.51;68.16;101653.88;4982741;28;20235;-69
2021/08/29 10:11:28;;;;;;;5.07;2.60;;;;;;;20.70;66.19;101647.50;4981616;28;20219;-69
2021/08/29 10:13:58;;;;;;;4.87;3.00;;;;;;;20.37;66.20;101659.72;4977132;28;20526;-69
2021/08/29 10:16:27;;;;;;;4.33;2.57;;;;;;;20.17;66.84;101667.03;4978469;28;20747;-68
2021/08/29 10:19:28;;;;;;;5.90;2.90;;;;;;;20.14;66.66;101657.28;4979766;28;20260;-69
2021/08/29 10:22:18;;;;;;;9.07;2.97;;;;;;;20.16;66.99;101655.28;4977090;28;20207;-68
2021/08/29 10:24:47;;;;;;;3.63;2.60;;;;;;;19.87;67.65;101623.53;4984358;28;20212;-69
2021/08/29 10:27:20;;;;;;;6.43;3.07;;;;;;;19.64;67.53;101658.41;4988140;28;20206;-68
2021/08/29 10:30:15;;;;;;;3.50;2.60;;;;;;;19.47;68.84;101657.16;4973065;28;20211;-69
2021/08/29 10:33:18;;;;;;;5.83;3.10;;;;;;;19.29;69.39;101659.72;4985321;28;20203;-70
2021/08/29 10:35:55;;;;;;;4.73;2.73;;;;;;;19.15;69.59;101660.94;4976147;28;20227;-69
2021/08/29 10:38:42;;;;;;;4.90;2.90;;;;;;;19.46;69.06;101653.56;4982178;28;20233;-76
2021/08/29 10:41:43;;;;;;;4.73;2.80;;;;;;;19.68;69.33;101643.50;4980491;28;20212;-69
2021/08/29 10:44:21;;;;;;;6.00;3.20;;;;;;;19.65;69.11;101657.41;4981077;28;20692;-69
2021/08/29 10:47:08;;;;;;;2.87;2.40;;;;;;;19.13;70.15;101626.66;4985424;28;20290;-69
2021/08/29 10:50:04;;;;;;;3.50;2.40;;;;;;;19.20;69.93;101647.75;4985569;28;20203;-69
2021/08/29 10:52:35;;;;;;;4.30;2.90;;;;;;;19.22;70.45;101626.69;4986529;28;20215;-69
2021/08/29 10:55:06;;;;;;;6.07;2.90;;;;;;;19.54;70.89;101648.31;4989393;28;20208;-69
2021/08/29 10:57:36;;;;;;;4.33;2.77;;;;;;;19.74;69.91;101643.78;4987379;28;20859;-69
2021/08/29 11:00:17;;;;;;;4.23;2.73;;;;;;;19.75;69.99;101653.69;5006317;28;20191;-70
2021/08/29 11:02:47;;;;;;;10.23;3.13;;;;;;;19.46;70.33;101648.13;4991938;28;20291;-69
2021/08/29 11:05:54;;;;;;;4.40;2.87;;;;;;;19.36;70.58;101663.59;4995161;28;20218;-69
2021/08/29 11:08:31;;;;;;;3.23;2.50;;;;;;;19.13;69.82;101664.78;4992182;28;20212;-69
2021/08/29 11:11:02;;;;;;;4.13;2.60;;;;;;;19.06;70.11;101659.03;5007431;28;20200;-69
2021/08/29 11:13:39;;;;;;;3.77;2.47;;;;;;;19.23;70.46;101654.78;5007930;28;20677;-70
2021/08/29 11:16:25;;;;;;;19.57;17.30;;;;;;;19.27;70.96;101639.88;4991245;28;20290;-70
2021/08/29 11:19:10;;;;;;;863.67;697.43;;;;;;;19.37;70.95;101661.72;4990537;28;20226;-68
2021/08/29 11:22:19;;;;;;;894.07;754.17;;;;;;;19.40;70.78;101664.19;4981669;28;20213;-69
2021/08/29 11:25:20;;;;;;;838.10;653.97;;;;;;;19.42;70.41;101673.94;4963871;28;20211;-69
2021/08/29 11:28:11;;;;;;;850.50;674.03;;;;;;;19.06;70.42;101637.25;4964157;28;20287;-70
2021/08/29 11:30:51;;;;;;;841.33;651.37;;;;;;;19.29;70.73;101665.16;4987364;28;20497;-69
2021/08/29 11:33:29;;;;;;;795.57;565.27;;;;;;;19.32;71.07;101664.00;5006639;28;20234;-69
2021/08/29 11:36:27;;;;;;;799.43;568.67;;;;;;;19.39;70.44;101660.59;4989200;28;20251;-68
2021/08/29 11:39:34;;;;;;;789.87;536.30;;;;;;;19.21;71.04;101659.50;4963526;28;20241;-69
2021/08/29 11:42:23;;;;;;;800.23;557.47;;;;;;;19.24;70.67;101659.22;4984387;28;20220;-69
2021/08/29 11:45:02;;;;;;;788.83;522.80;;;;;;;19.26;70.97;101668.13;4998542;28;20208;-69
2021/08/29 11:47:38;;;;;;;776.93;485.20;;;;;;;19.30;70.81;101666.88;5003058;28;20272;-69
2021/08/29 11:50:12;;;;;;;769.50;483.47;;;;;;;19.27;71.08;101664.41;4979157;28;20267;-69
2021/08/29 11:53:09;;;;;;;767.47;485.10;;;;;;;19.21;71.63;101656.78;4986149;28;20226;-69
2021/08/29 11:55:37;;;;;;;766.20;472.40;;;;;;;19.04;71.03;101641.09;4989740;28;20679;-69
2021/08/29 11:58:17;;;;;;;783.03;501.40;;;;;;;19.29;71.87;101659.72;4983201;28;20230;-70
2021/08/29 12:00:45;;;;;;;774.97;480.13;;;;;;;19.19;71.77;101664.22;4993689;28;20315;-69
2021/08/29 12:03:19;;;;;;;772.93;479.20;;;;;;;19.29;72.49;101658.84;4983851;28;20618;-69
2021/08/29 12:05:56;;;;;;;775.97;487.90;;;;;;;19.38;71.67;101655.28;4970198;28;20733;-69